Time;durP1;ratioP1;P1;durP2;ratioP2;P2;SDS_P1;SDS_P2;PMS_P1;PMS_P2;Temp;Humidity;BMP_temperature;BMP_pressure;BME280_temperature;BME280_humidity;BME280_pressure;Samples;Min_cycle;Max_cycle;Signal;HPM_P1;HPM_P2
2022/02/26 00:02:03;;;;;;;3.83;2.33;;;;;;;7.98;51.74;98706.25;5031918;28;20202;-70
2022/02/26 00:04:28;;;;;;;5.70;3.30;;;;;;;7.83;52.24;98703.69;5030270;28;20184;-71
2022/02/26 00:06:54;;;;;;;6.43;3.17;;;;;;;7.92;52.39;98714.50;5031704;28;20797;-70
2022/02/26 00:09:19;;;;;;;7.67;3.00;;;;;;;7.92;52.57;98709.28;5030595;28;20187;-72
2022/02/26 00:11:45;;;;;;;7.50;3.20;;;;;;;7.82;52.11;98709.84;5030270;28;20223;-71
2022/02/26 00:14:10;;;;;;;8.87;3.20;;;;;;;7.79;52.68;98715.28;5030347;28;20195;-70
2022/02/26 00:16:38;;;;;;;7.77;3.60;;;;;;;7.84;52.19;98721.03;5031018;28;20260;-70
2022/02/26 00:19:04;;;;;;;5.33;3.07;;;;;;;7.83;52.34;98721.97;5030551;28;20189;-71
2022/02/26 00:21:29;;;;;;;5.00;2.90;;;;;;;7.92;52.20;98727.53;5030972;28;20524;-70
2022/02/26 00:23:54;;;;;;;7.33;3.07;;;;;;;7.93;52.07;98737.88;5031373;28;20205;-69
2022/02/26 00:26:22;;;;;;;5.97;2.73;;;;;;;7.99;52.39;98731.44;5029349;28;20193;-70
2022/02/26 00:28:48;;;;;;;5.00;2.70;;;;;;;7.95;52.52;98735.16;5030307;28;20317;-70
2022/02/26 00:31:15;;;;;;;4.67;3.00;;;;;;;7.99;52.43;98734.88;5029538;28;21020;-71
2022/02/26 00:33:41;;;;;;;10.00;2.87;;;;;;;7.99;52.72;98736.66;5030640;28;20918;-72
2022/02/26 00:36:07;;;;;;;7.17;2.90;;;;;;;8.02;52.30;98741.69;5030968;28;20457;-74
2022/02/26 00:38:32;;;;;;;9.43;3.10;;;;;;;7.99;52.27;98742.72;5030514;28;20235;-72
2022/02/26 00:40:57;;;;;;;6.73;3.00;;;;;;;8.00;52.54;98743.53;5030758;28;20195;-71
2022/02/26 00:43:24;;;;;;;7.87;3.23;;;;;;;7.98;52.67;98751.50;5030058;28;20188;-72
2022/02/26 00:45:49;;;;;;;6.00;2.97;;;;;;;7.96;53.33;98748.13;5030677;28;20189;-70
2022/02/26 00:48:15;;;;;;;4.70;2.50;;;;;;;8.05;52.27;98762.38;5011457;28;20453;-71
2022/02/26 00:50:40;;;;;;;5.67;2.60;;;;;;;8.06;52.67;98758.84;5030562;28;20266;-72
2022/02/26 00:53:06;;;;;;;6.20;2.90;;;;;;;8.06;52.43;98758.84;5030754;28;20191;-73
2022/02/26 00:55:31;;;;;;;8.13;3.87;;;;;;;8.01;52.18;98763.50;5029801;28;20183;-71
2022/02/26 00:57:57;;;;;;;8.87;3.80;;;;;;;7.99;53.00;98766.22;5030475;28;20259;-72
2022/02/26 01:00:23;;;;;;;12.83;3.27;;;;;;;8.06;52.71;98769.28;5030107;28;20204;-71
2022/02/26 01:02:48;;;;;;;6.30;3.60;;;;;;;7.95;52.88;98771.72;5030341;28;20278;-71
2022/02/26 01:05:14;;;;;;;8.70;3.50;;;;;;;8.08;52.92;98777.84;5029595;28;20283;-70
2022/02/26 01:07:39;;;;;;;6.40;4.07;;;;;;;8.07;52.60;98786.59;5037262;28;20791;-70
2022/02/26 01:10:06;;;;;;;8.03;3.17;;;;;;;8.11;52.59;98787.25;5028974;28;20615;-71
2022/02/26 01:12:31;;;;;;;5.27;3.30;;;;;;;8.01;52.40;98789.63;5012588;28;20657;-73
2022/02/26 01:14:57;;;;;;;6.43;3.50;;;;;;;7.95;52.32;98793.44;5032587;28;20433;-71
2022/02/26 01:17:22;;;;;;;7.97;3.30;;;;;;;7.89;52.88;98798.22;5029481;28;20349;-68
2022/02/26 01:19:49;;;;;;;5.80;3.17;;;;;;;7.89;52.92;98796.44;5030481;28;20294;-70
2022/02/26 01:22:14;;;;;;;8.10;3.27;;;;;;;7.86;52.76;98793.19;5029680;28;20286;-72
2022/02/26 01:24:40;;;;;;;9.63;3.50;;;;;;;7.87;52.72;98795.72;5011479;28;20474;-72
2022/02/26 01:27:06;;;;;;;8.63;3.23;;;;;;;7.96;52.97;98783.84;5029662;28;20208;-71
2022/02/26 01:29:31;;;;;;;10.73;3.77;;;;;;;7.87;52.59;98790.50;5030262;28;20189;-71
2022/02/26 01:31:57;;;;;;;10.40;3.63;;;;;;;7.87;53.20;98789.66;5028882;28;20233;-72
2022/02/26 01:34:23;;;;;;;5.83;3.10;;;;;;;7.84;53.26;98788.91;5030381;28;20209;-70
2022/02/26 01:36:48;;;;;;;5.30;3.30;;;;;;;7.93;52.79;98797.09;5030135;28;20184;-73
2022/02/26 01:39:13;;;;;;;5.13;3.37;;;;;;;7.96;52.33;98799.50;5029281;28;20740;-72
2022/02/26 01:41:39;;;;;;;7.33;3.40;;;;;;;7.96;52.27;98795.13;5030373;28;20181;-73
2022/02/26 01:44:06;;;;;;;7.90;3.87;;;;;;;8.00;52.26;98796.59;5028855;28;20180;-71
2022/02/26 01:46:32;;;;;;;6.57;3.90;;;;;;;7.95;52.73;98797.81;5029349;28;20946;-74
2022/02/26 01:48:57;;;;;;;8.63;3.77;;;;;;;8.02;52.44;98793.06;5029810;28;20458;-71
2022/02/26 01:51:23;;;;;;;7.17;3.30;;;;;;;7.94;52.25;98793.56;5030040;28;20230;-71
2022/02/26 01:53:49;;;;;;;7.77;4.03;;;;;;;7.89;52.77;98791.22;5011765;28;20184;-72
2022/02/26 01:56:14;;;;;;;7.40;3.20;;;;;;;7.92;52.63;98790.19;5029050;28;20683;-70
2022/02/26 01:58:40;;;;;;;8.17;3.20;;;;;;;8.03;52.77;98786.91;5029465;28;20331;-73
2022/02/26 02:01:06;;;;;;;7.87;3.50;;;;;;;8.13;52.16;98788.84;5028625;28;20191;-72
2022/02/26 02:03:32;;;;;;;8.70;3.90;;;;;;;8.08;52.73;98793.50;5011935;28;20416;-70
2022/02/26 02:05:59;;;;;;;7.93;3.50;;;;;;;8.18;52.27;98790.31;5029445;28;20198;-72
2022/02/26 02:08:24;;;;;;;6.73;3.17;;;;;;;8.24;51.83;98787.31;5029423;28;20444;-73
2022/02/26 02:10:51;;;;;;;10.63;3.50;;;;;;;8.25;51.98;98788.97;5029130;28;20477;-72
2022/02/26 02:13:18;;;;;;;5.23;3.07;;;;;;;8.23;51.46;98788.25;5029546;28;20184;-71
2022/02/26 02:15:43;;;;;;;11.07;3.30;;;;;;;8.11;51.66;98782.88;5028391;28;20531;-71
2022/02/26 02:18:11;;;;;;;16.30;3.67;;;;;;;8.10;52.57;98786.41;5029751;28;20537;-72
2022/02/26 02:20:36;;;;;;;13.43;4.10;;;;;;;8.08;51.76;98782.22;5029484;28;20191;-71
2022/02/26 02:23:02;;;;;;;6.20;3.87;;;;;;;8.08;52.60;98785.66;5014026;28;20427;-70
2022/02/26 02:25:29;;;;;;;6.17;3.33;;;;;;;8.05;51.96;98785.88;5032537;28;20195;-70
2022/02/26 02:27:55;;;;;;;12.63;4.30;;;;;;;8.02;52.24;98787.81;5031519;28;20457;-70
2022/02/26 02:30:22;;;;;;;10.37;3.90;;;;;;;8.05;52.00;98796.34;5032772;28;20548;-71
2022/02/26 02:32:48;;;;;;;19.10;3.70;;;;;;;8.08;52.09;98798.72;5032507;28;20187;-71
2022/02/26 02:35:46;;;;;;;7.50;4.50;;;;;;;8.11;51.85;98795.09;5014789;28;20449;-71
2022/02/26 02:38:13;;;;;;;9.60;3.93;;;;;;;7.99;52.47;98805.38;4970611;28;20229;-71
2022/02/26 02:40:40;;;;;;;8.30;4.13;;;;;;;7.97;51.93;98802.03;4971275;28;20444;-71
2022/02/26 02:43:06;;;;;;;9.90;4.30;;;;;;;7.98;52.82;98808.94;4971186;28;20530;-72
2022/02/26 02:45:33;;;;;;;10.70;4.30;;;;;;;8.04;52.69;98804.25;4971103;28;20516;-70
2022/02/26 02:47:58;;;;;;;12.07;4.47;;;;;;;8.05;52.33;98806.78;4971893;28;20226;-70
2022/02/26 02:50:24;;;;;;;9.53;4.10;;;;;;;8.00;51.60;98806.22;4971035;28;20469;-71
2022/02/26 02:52:49;;;;;;;7.63;4.20;;;;;;;8.00;52.29;98809.66;4971012;28;20197;-73
2022/02/26 02:55:16;;;;;;;19.40;4.37;;;;;;;7.99;52.15;98812.38;4970007;28;20253;-72
2022/02/26 02:57:43;;;;;;;10.27;4.60;;;;;;;7.93;52.26;98815.38;4955083;28;20244;-69
2022/02/26 03:00:09;;;;;;;11.00;3.93;;;;;;;7.97;52.68;98822.06;4969550;28;20437;-70
2022/02/26 03:02:35;;;;;;;17.60;4.30;;;;;;;7.98;52.67;98819.38;4971666;28;20447;-71
2022/02/26 03:05:00;;;;;;;7.83;3.93;;;;;;;7.88;53.04;98818.25;4971106;28;20436;-72
2022/02/26 03:07:26;;;;;;;8.43;4.43;;;;;;;7.93;52.64;98812.78;4955018;28;20221;-71
2022/02/26 03:09:51;;;;;;;12.87;4.73;;;;;;;7.94;53.00;98817.06;4970794;28;20215;-73
2022/02/26 03:12:17;;;;;;;8.70;4.30;;;;;;;7.95;52.43;98816.94;4973084;28;20796;-72
2022/02/26 03:14:43;;;;;;;10.73;4.27;;;;;;;8.02;52.67;98827.00;5026065;28;20199;-71
2022/02/26 03:17:08;;;;;;;14.13;4.70;;;;;;;8.02;52.75;98830.47;5031216;28;20589;-71
2022/02/26 03:19:34;;;;;;;11.47;4.90;;;;;;;8.00;52.66;98827.09;5032349;28;20618;-73
2022/02/26 03:21:59;;;;;;;10.07;4.37;;;;;;;7.99;52.44;98838.47;5031887;28;20232;-72
2022/02/26 03:24:25;;;;;;;10.93;4.27;;;;;;;7.95;52.73;98834.38;5033738;28;20188;-71
2022/02/26 03:26:56;;;;;;;11.30;5.13;;;;;;;7.90;53.23;98831.22;5031536;28;20191;-72
2022/02/26 03:29:23;;;;;;;16.30;5.30;;;;;;;7.90;52.39;98834.66;5031815;28;20183;-71
2022/02/26 03:31:48;;;;;;;9.77;4.60;;;;;;;7.90;52.63;98833.84;5031005;28;20904;-71
2022/02/26 03:34:14;;;;;;;11.50;5.30;;;;;;;7.86;52.63;98830.59;5031068;28;20502;-71
2022/02/26 03:36:39;;;;;;;19.13;5.20;;;;;;;7.93;53.03;98836.28;5031575;28;20186;-72
2022/02/26 03:39:05;;;;;;;10.47;4.90;;;;;;;7.98;52.53;98840.28;5029895;28;20185;-71
2022/02/26 03:41:30;;;;;;;11.93;5.67;;;;;;;7.93;52.68;98838.88;5030814;28;20207;-73
2022/02/26 03:43:56;;;;;;;10.60;4.87;;;;;;;7.91;52.73;98838.13;5031499;28;20190;-74
2022/02/26 03:46:23;;;;;;;10.90;4.90;;;;;;;7.87;52.78;98841.84;5030760;28;20178;-73
2022/02/26 03:48:50;;;;;;;12.70;5.00;;;;;;;7.92;52.63;98835.41;5013817;28;20692;-73
2022/02/26 03:51:15;;;;;;;11.93;4.87;;;;;;;7.88;52.86;98835.69;5031623;28;20522;-72
2022/02/26 03:53:41;;;;;;;10.43;4.80;;;;;;;7.81;52.66;98838.69;5031346;28;20805;-72
2022/02/26 03:56:06;;;;;;;9.27;5.03;;;;;;;7.79;53.07;98843.19;5030461;28;20187;-71
2022/02/26 03:58:32;;;;;;;14.47;6.70;;;;;;;7.78;52.81;98849.34;5031441;28;20275;-70
2022/02/26 04:00:57;;;;;;;16.07;5.80;;;;;;;7.83;52.45;98851.66;5031027;28;20193;-73
2022/02/26 04:03:23;;;;;;;14.67;6.47;;;;;;;7.82;52.83;98858.63;5031124;28;20291;-73
2022/02/26 04:05:48;;;;;;;16.70;5.97;;;;;;;7.78;52.81;98859.78;5030787;28;20219;-72
2022/02/26 04:08:14;;;;;;;11.73;5.03;;;;;;;7.77;52.77;98865.94;5030615;28;20358;-71
2022/02/26 04:10:39;;;;;;;11.60;5.50;;;;;;;7.82;53.15;98865.63;4998848;28;20218;-70
2022/02/26 04:13:05;;;;;;;13.50;5.47;;;;;;;7.79;52.63;98864.06;5005270;28;20201;-72
2022/02/26 04:15:30;;;;;;;13.10;5.83;;;;;;;7.79;53.28;98855.38;5002618;28;20177;-73
2022/02/26 04:17:56;;;;;;;10.50;5.47;;;;;;;7.76;53.08;98864.25;5013522;28;20214;-71
2022/02/26 04:20:21;;;;;;;13.80;6.50;;;;;;;7.71;53.19;98862.84;5031748;28;20186;-73
2022/02/26 04:22:47;;;;;;;12.73;6.27;;;;;;;7.60;53.21;98872.19;5029614;28;20849;-70
2022/02/26 04:25:12;;;;;;;9.23;5.70;;;;;;;7.50;53.44;98866.66;5031398;28;20266;-73
2022/02/26 04:27:38;;;;;;;11.60;5.60;;;;;;;7.49;53.50;98870.19;5031043;28;20197;-72
2022/02/26 04:30:06;;;;;;;7.43;4.70;;;;;;;7.55;53.80;98876.00;5030741;28;20270;-72
2022/02/26 04:32:31;;;;;;;12.53;5.87;;;;;;;7.56;53.30;98870.66;5030625;28;20524;-71
2022/02/26 04:34:57;;;;;;;9.77;5.30;;;;;;;7.57;53.40;98871.50;5030016;28;20418;-72
2022/02/26 04:37:22;;;;;;;21.27;5.43;;;;;;;7.59;52.86;98872.25;5012457;28;20214;-69
2022/02/26 04:39:48;;;;;;;14.73;5.43;;;;;;;7.52;53.58;98874.38;5030427;28;20179;-71
2022/02/26 04:42:14;;;;;;;11.50;5.67;;;;;;;7.48;52.69;98886.78;5029614;28;20242;-71
2022/02/26 04:44:39;;;;;;;11.80;5.73;;;;;;;7.55;53.01;98878.59;5029220;28;20178;-73
2022/02/26 04:47:05;;;;;;;19.80;5.77;;;;;;;7.48;53.28;98872.91;5030101;28;20198;-70
2022/02/26 04:49:30;;;;;;;7.30;4.60;;;;;;;7.43;53.02;98883.63;5012793;28;20301;-70
2022/02/26 04:51:56;;;;;;;9.03;4.93;;;;;;;7.36;53.84;98884.91;5030106;28;20204;-70
2022/02/26 04:54:21;;;;;;;13.20;5.97;;;;;;;7.41;54.03;98889.84;5012493;28;20181;-70
2022/02/26 04:56:47;;;;;;;7.00;4.53;;;;;;;7.40;53.55;98878.59;5029765;28;20182;-71
2022/02/26 04:59:12;;;;;;;11.23;4.97;;;;;;;7.40;54.10;98881.19;5028801;28;20188;-71
2022/02/26 05:01:38;;;;;;;12.73;5.50;;;;;;;7.37;53.49;98881.38;5030068;28;20205;-72
2022/02/26 05:04:03;;;;;;;9.27;4.90;;;;;;;7.42;53.24;98889.78;5030546;28;20278;-70
2022/02/26 05:06:29;;;;;;;14.00;5.37;;;;;;;7.37;53.77;98887.41;5011781;28;20184;-70
2022/02/26 05:08:54;;;;;;;11.93;5.17;;;;;;;7.44;53.53;98885.28;5030569;28;20561;-70
2022/02/26 05:11:19;;;;;;;9.90;4.70;;;;;;;7.46;53.87;98891.25;5035173;28;20209;-71
2022/02/26 05:13:45;;;;;;;12.23;5.93;;;;;;;7.42;53.49;98895.00;5029400;28;20184;-70
2022/02/26 05:16:10;;;;;;;11.80;5.43;;;;;;;7.46;53.70;98891.25;5028966;28;20185;-71
2022/02/26 05:18:37;;;;;;;10.43;5.30;;;;;;;7.44;53.63;98900.94;5029443;28;20206;-70
2022/02/26 05:21:02;;;;;;;9.23;5.13;;;;;;;7.43;53.76;98899.28;5030348;28;20638;-70
2022/02/26 05:23:28;;;;;;;11.90;5.30;;;;;;;7.46;53.33;98899.06;5029451;28;20423;-70
2022/02/26 05:25:53;;;;;;;9.27;5.63;;;;;;;7.52;53.54;98898.72;5029755;28;20618;-71
2022/02/26 05:28:19;;;;;;;9.70;5.77;;;;;;;7.52;53.34;98898.72;5029672;28;20200;-71
2022/02/26 05:30:44;;;;;;;10.83;5.93;;;;;;;7.50;53.70;98908.41;5029987;28;20204;-70
2022/02/26 05:33:09;;;;;;;10.33;5.50;;;;;;;7.51;53.96;98910.09;5029720;28;20532;-73
2022/02/26 05:35:35;;;;;;;15.53;5.60;;;;;;;7.36;53.65;98911.00;5029213;28;20181;-72
2022/02/26 05:38:00;;;;;;;14.07;6.17;;;;;;;7.47;53.13;98907.75;5008527;28;20285;-71
2022/02/26 05:40:26;;;;;;;12.40;6.40;;;;;;;7.35;53.98;98911.91;5029825;28;20260;-72
2022/02/26 05:42:52;;;;;;;17.80;6.33;;;;;;;7.48;53.56;98917.28;5029780;28;20655;-72
2022/02/26 05:45:18;;;;;;;10.13;5.90;;;;;;;7.52;53.11;98922.22;5010759;28;20652;-71
2022/02/26 05:47:43;;;;;;;13.90;6.30;;;;;;;7.52;53.57;98919.59;5030035;28;20503;-72
2022/02/26 05:50:09;;;;;;;15.13;6.80;;;;;;;7.59;53.72;98921.84;5012066;28;20197;-70
2022/02/26 05:52:35;;;;;;;16.20;6.50;;;;;;;7.59;53.09;98922.69;5028722;28;20691;-70
2022/02/26 05:55:00;;;;;;;14.27;7.50;;;;;;;7.56;53.31;98937.69;5029383;28;20425;-71
2022/02/26 05:57:26;;;;;;;13.07;5.73;;;;;;;7.62;52.96;98940.78;5030265;28;20214;-69
2022/02/26 05:59:51;;;;;;;14.10;6.37;;;;;;;7.61;52.87;98952.16;5033540;28;20226;-72
2022/02/26 06:02:17;;;;;;;15.00;6.40;;;;;;;7.57;53.13;98950.63;5032962;28;20193;-70
2022/02/26 06:04:42;;;;;;;15.57;5.80;;;;;;;7.61;53.29;98951.28;5033321;28;20658;-71
2022/02/26 06:07:08;;;;;;;13.17;6.47;;;;;;;7.69;53.01;98954.28;5032763;28;20243;-71
2022/02/26 06:09:33;;;;;;;10.70;6.57;;;;;;;7.59;53.34;98959.22;5032916;28;20188;-70
2022/02/26 06:11:58;;;;;;;11.23;6.20;;;;;;;7.61;53.51;98957.38;5032328;28;20208;-71
2022/02/26 06:14:24;;;;;;;15.57;6.53;;;;;;;7.59;52.98;98956.63;5030878;28;20266;-74
2022/02/26 06:16:50;;;;;;;14.70;6.13;;;;;;;7.43;53.52;98959.28;5029367;28;20682;-70
2022/02/26 06:19:15;;;;;;;15.50;6.80;;;;;;;7.56;53.67;98969.84;5032869;28;20201;-70
2022/02/26 06:21:41;;;;;;;18.43;7.00;;;;;;;7.41;53.86;98971.56;5033478;28;20174;-72
2022/02/26 06:24:06;;;;;;;13.73;6.10;;;;;;;7.52;53.90;98974.41;5030898;28;20210;-70
2022/02/26 06:26:32;;;;;;;17.07;6.93;;;;;;;7.40;53.92;98972.50;5032860;28;20184;-71
2022/02/26 06:28:58;;;;;;;14.90;6.30;;;;;;;7.48;53.90;98972.88;5032247;28;20202;-71
2022/02/26 06:31:23;;;;;;;13.30;6.70;;;;;;;7.58;53.42;98977.56;5015140;28;20202;-71
2022/02/26 06:33:49;;;;;;;11.40;6.13;;;;;;;7.55;53.16;98977.75;5033314;28;20191;-71
2022/02/26 06:36:14;;;;;;;17.30;6.90;;;;;;;7.62;53.28;98984.28;5031995;28;20190;-72
2022/02/26 06:38:40;;;;;;;12.33;6.10;;;;;;;7.65;53.33;98986.72;5033588;28;20618;-72
2022/02/26 06:41:05;;;;;;;10.50;6.30;;;;;;;7.69;53.93;98990.81;5032941;28;20266;-69
2022/02/26 06:43:31;;;;;;;13.73;6.37;;;;;;;7.63;52.95;98991.19;5032288;28;20503;-71
2022/02/26 06:45:56;;;;;;;13.43;6.80;;;;;;;7.62;53.83;98999.94;5031568;28;20192;-71
2022/02/26 06:48:22;;;;;;;13.70;6.10;;;;;;;7.71;53.46;98993.34;5031774;28;20205;-71
2022/02/26 06:50:47;;;;;;;18.27;6.00;;;;;;;7.66;53.10;99001.47;5031897;28;20932;-71
2022/02/26 06:53:13;;;;;;;19.23;7.20;;;;;;;7.73;53.84;99008.00;5032687;28;20188;-72
2022/02/26 06:55:38;;;;;;;19.97;7.00;;;;;;;7.78;53.35;99010.31;5016332;28;20231;-72
2022/02/26 06:58:03;;;;;;;19.17;6.73;;;;;;;7.67;53.26;99006.56;5032266;28;20211;-71
2022/02/26 07:00:30;;;;;;;17.73;7.47;;;;;;;7.76;53.36;99012.19;5033387;28;20265;-71
2022/02/26 07:02:56;;;;;;;12.60;6.27;;;;;;;7.78;53.52;99011.19;5032441;28;20214;-71
2022/02/26 07:05:21;;;;;;;32.77;15.30;;;;;;;7.77;53.69;99011.25;5031061;28;20463;-71
2022/02/26 07:07:47;;;;;;;34.73;16.20;;;;;;;7.76;53.58;99018.25;5033389;28;21252;-71
2022/02/26 07:10:12;;;;;;;23.13;9.97;;;;;;;7.72;53.88;99019.34;5033404;28;20215;-71
2022/02/26 07:12:38;;;;;;;44.23;22.03;;;;;;;7.77;53.56;99019.94;5033701;28;20180;-71
2022/02/26 07:15:04;;;;;;;48.37;21.13;;;;;;;7.74;53.76;99025.34;5032696;28;20189;-73
2022/02/26 07:17:30;;;;;;;126.00;52.20;;;;;;;7.67;53.75;99018.81;5034541;28;20240;-72
2022/02/26 07:19:55;;;;;;;46.83;26.17;;;;;;;7.61;53.81;99024.38;5033652;28;20447;-71
2022/02/26 07:22:20;;;;;;;48.20;23.07;;;;;;;7.52;54.08;99036.16;5035179;28;20718;-72
2022/02/26 07:24:46;;;;;;;57.10;29.47;;;;;;;7.56;54.10;99035.06;5033856;28;20208;-72
2022/02/26 07:27:13;;;;;;;50.43;21.70;;;;;;;7.56;53.88;99031.63;5042523;28;20198;-71
2022/02/26 07:29:40;;;;;;;23.40;10.57;;;;;;;7.70;53.69;99034.25;5033881;28;20183;-71
2022/02/26 07:32:05;;;;;;;22.63;9.47;;;;;;;7.87;53.42;99035.91;5016878;28;21048;-70
2022/02/26 07:34:31;;;;;;;18.20;8.90;;;;;;;7.85;52.60;99043.00;5032649;28;20499;-74
2022/02/26 07:36:56;;;;;;;29.00;14.37;;;;;;;7.94;53.01;99041.63;5032340;28;20211;-72
2022/02/26 07:39:22;;;;;;;22.57;9.70;;;;;;;7.99;53.01;99032.56;5032418;28;20264;-71
2022/02/26 07:41:47;;;;;;;19.50;10.53;;;;;;;8.00;52.92;99049.91;5031558;28;20189;-71
2022/02/26 07:44:13;;;;;;;27.40;12.60;;;;;;;8.10;53.21;99044.16;5031704;28;20226;-70
2022/02/26 07:46:39;;;;;;;16.67;9.33;;;;;;;8.04;53.43;99049.72;5031526;28;20184;-72
2022/02/26 07:49:04;;;;;;;24.27;7.47;;;;;;;7.94;53.33;99062.50;5031824;28;20446;-69
2022/02/26 07:51:30;;;;;;;23.93;10.10;;;;;;;7.93;53.42;99058.22;4997538;28;20221;-72
2022/02/26 07:53:55;;;;;;;19.23;10.87;;;;;;;8.02;52.73;99056.81;5032074;28;20529;-71
2022/02/26 07:56:21;;;;;;;26.03;11.10;;;;;;;8.05;52.93;99065.31;5031238;28;21033;-71
2022/02/26 07:58:46;;;;;;;29.70;13.90;;;;;;;8.03;52.86;99066.31;5030548;28;20195;-73
2022/02/26 08:01:12;;;;;;;21.70;9.40;;;;;;;8.11;52.46;99070.16;5031865;28;20574;-71
2022/02/26 08:03:37;;;;;;;22.17;9.53;;;;;;;8.18;52.92;99073.25;5031225;28;20175;-70
2022/02/26 08:06:03;;;;;;;26.27;11.90;;;;;;;8.23;52.71;99067.75;5013615;28;20590;-71
2022/02/26 08:08:29;;;;;;;18.93;7.80;;;;;;;8.24;52.06;99077.28;5013565;28;20196;-72
2022/02/26 08:10:54;;;;;;;19.43;7.33;;;;;;;8.40;52.46;99069.34;5031604;28;20214;-72
2022/02/26 08:13:20;;;;;;;18.03;7.30;;;;;;;8.54;51.51;99076.41;5031299;28;20214;-71
2022/02/26 08:15:45;;;;;;;22.57;7.30;;;;;;;8.57;51.48;99070.97;5030163;28;20179;-71
2022/02/26 08:18:12;;;;;;;14.60;7.27;;;;;;;8.58;51.43;99083.09;5030813;28;20203;-71
2022/02/26 08:20:38;;;;;;;15.70;7.30;;;;;;;8.55;51.23;99078.91;5030290;28;20243;-72
2022/02/26 08:23:04;;;;;;;16.70;8.00;;;;;;;8.50;50.83;99075.75;5031722;28;20471;-71
2022/02/26 08:25:30;;;;;;;22.83;6.93;;;;;;;8.58;51.10;99083.09;5029841;28;20658;-71
2022/02/26 08:27:55;;;;;;;14.63;6.80;;;;;;;8.65;50.50;99075.72;5030549;28;20207;-70
2022/02/26 08:30:21;;;;;;;14.33;6.50;;;;;;;8.61;49.79;99082.91;5030626;28;20662;-70
2022/02/26 08:32:47;;;;;;;14.67;5.93;;;;;;;8.67;49.79;99074.72;5013115;28;20264;-69
2022/02/26 08:35:14;;;;;;;11.93;6.60;;;;;;;8.71;49.56;99078.78;5012766;28;20523;-70
2022/02/26 08:37:39;;;;;;;11.87;5.90;;;;;;;8.76;49.74;99081.97;5030318;28;20195;-70
2022/02/26 08:40:07;;;;;;;17.83;6.50;;;;;;;8.89;49.67;99086.44;5030964;28;20433;-70
2022/02/26 08:42:32;;;;;;;14.10;6.23;;;;;;;8.96;49.40;99082.50;5022318;28;20210;-72
2022/02/26 08:44:58;;;;;;;15.60;5.87;;;;;;;8.96;49.05;99082.50;5030944;28;20520;-70
2022/02/26 08:47:23;;;;;;;10.70;6.30;;;;;;;9.01;48.62;99075.22;5030101;28;20203;-71
2022/02/26 08:49:49;;;;;;;14.90;6.33;;;;;;;9.01;48.24;99080.44;5030967;28;20191;-70
2022/02/26 08:52:15;;;;;;;13.00;6.40;;;;;;;9.13;48.45;99078.00;5030061;28;20208;-71
2022/02/26 08:54:40;;;;;;;20.70;6.83;;;;;;;9.24;47.57;99080.75;5029932;28;20199;-71
2022/02/26 08:57:06;;;;;;;11.33;6.10;;;;;;;9.66;47.19;99075.47;5012493;28;20225;-71
2022/02/26 08:59:31;;;;;;;18.30;7.10;;;;;;;9.78;46.57;99074.66;5029982;28;20643;-69
2022/02/26 09:01:57;;;;;;;11.10;5.67;;;;;;;9.95;45.40;99076.19;5030916;28;20206;-71
2022/02/26 09:04:23;;;;;;;19.30;7.10;;;;;;;9.94;44.70;99076.25;5030176;28;20182;-70
2022/02/26 09:06:49;;;;;;;11.23;6.00;;;;;;;10.05;44.82;99078.16;5030846;28;20418;-71
2022/02/26 09:09:15;;;;;;;11.27;6.00;;;;;;;10.23;44.89;99073.47;5030088;28;20179;-71
2022/02/26 09:11:41;;;;;;;15.10;6.53;;;;;;;10.23;44.64;99069.03;5029518;28;20218;-70
2022/02/26 09:14:08;;;;;;;14.10;5.97;;;;;;;10.18;44.03;99076.41;5031097;28;20929;-70
2022/02/26 09:16:34;;;;;;;19.50;6.43;;;;;;;10.22;43.59;99071.78;5030841;28;20542;-69
2022/02/26 09:19:00;;;;;;;12.73;5.70;;;;;;;10.34;43.02;99075.34;5029983;28;20447;-70
2022/02/26 09:21:26;;;;;;;13.47;5.10;;;;;;;10.56;42.20;99072.97;5030333;28;20462;-71
2022/02/26 09:23:51;;;;;;;13.90;5.20;;;;;;;10.82;42.16;99065.06;5030803;28;20178;-70
2022/02/26 09:26:17;;;;;;;12.00;6.30;;;;;;;11.02;41.88;99071.50;5029420;28;20188;-70
2022/02/26 09:28:42;;;;;;;14.70;5.70;;;;;;;11.27;42.00;99075.00;5030275;28;20207;-70
2022/02/26 09:31:09;;;;;;;9.60;3.90;;;;;;;11.64;39.50;99067.06;5030430;28;20256;-69
2022/02/26 09:33:35;;;;;;;10.40;4.30;;;;;;;12.04;37.29;99065.88;5017083;28;20682;-69
2022/02/26 09:36:01;;;;;;;14.03;4.57;;;;;;;12.27;37.81;99058.03;5037983;28;20422;-69
2022/02/26 09:38:28;;;;;;;16.23;5.33;;;;;;;12.42;37.94;99058.63;5025997;28;20978;-69
2022/02/26 09:40:57;;;;;;;9.90;4.60;;;;;;;12.31;36.51;99059.47;5034419;28;20176;-70
2022/02/26 09:43:22;;;;;;;10.23;4.13;;;;;;;12.09;36.37;99063.75;5032364;28;20421;-71
2022/02/26 09:45:49;;;;;;;8.27;4.67;;;;;;;11.73;36.14;99069.94;5020791;28;20498;-70
2022/02/26 09:48:14;;;;;;;10.70;3.90;;;;;;;11.55;36.58;99072.13;5031672;28;20206;-69
2022/02/26 09:50:40;;;;;;;8.20;4.40;;;;;;;11.21;36.42;99071.00;5034278;28;20454;-69
2022/02/26 09:53:06;;;;;;;16.93;5.30;;;;;;;11.06;37.61;99069.50;5025697;28;20589;-70
2022/02/26 09:55:32;;;;;;;14.27;5.13;;;;;;;10.78;38.44;99074.06;5033294;28;20176;-69
2022/02/26 09:57:59;;;;;;;10.80;4.50;;;;;;;10.84;38.35;99076.25;5033971;28;20438;-70
2022/02/26 10:00:24;;;;;;;10.73;4.47;;;;;;;10.74;38.07;99068.22;5033059;28;20239;-68
2022/02/26 10:02:50;;;;;;;15.23;4.40;;;;;;;10.75;37.27;99074.28;5033889;28;20422;-68
2022/02/26 10:05:18;;;;;;;11.23;3.67;;;;;;;10.74;36.53;99073.47;5032897;28;20182;-69
2022/02/26 10:07:44;;;;;;;8.20;3.57;;;;;;;10.42;36.00;99073.06;5033716;28;20196;-69
2022/02/26 10:10:21;;;;;;;8.13;3.80;;;;;;;10.02;36.03;99081.00;5031542;28;20427;-69
2022/02/26 10:12:55;;;;;;;7.27;2.97;;;;;;;9.80;36.14;99082.41;5033721;28;20531;-68
2022/02/26 10:15:21;;;;;;;8.37;3.47;;;;;;;9.99;36.36;99077.63;5033158;28;20509;-69
2022/02/26 10:18:00;;;;;;;6.33;2.70;;;;;;;10.46;34.94;99074.50;5032795;28;20938;-68
2022/02/26 10:20:26;;;;;;;5.40;2.13;;;;;;;10.67;34.19;99074.81;5032926;28;20183;-70
2022/02/26 10:22:53;;;;;;;8.97;2.57;;;;;;;10.45;33.69;99075.50;5032947;28;20431;-70
2022/02/26 10:25:21;;;;;;;8.77;2.33;;;;;;;10.44;34.10;99086.91;5032890;28;20270;-70
2022/02/26 10:27:52;;;;;;;7.67;2.10;;;;;;;10.38;33.50;99080.31;5032159;28;20459;-69
2022/02/26 10:30:25;;;;;;;4.67;2.20;;;;;;;10.14;34.31;99082.78;5016886;28;20424;-69
2022/02/26 10:33:12;;;;;;;8.00;3.13;;;;;;;10.22;34.25;99088.31;5033908;28;20426;-70
2022/02/26 10:35:45;;;;;;;9.13;2.77;;;;;;;10.17;34.74;99087.81;5026700;28;20444;-70
2022/02/26 10:38:20;;;;;;;8.50;2.53;;;;;;;10.56;34.35;99072.09;5034356;28;20503;-69
2022/02/26 10:40:55;;;;;;;5.00;2.30;;;;;;;11.21;32.10;99076.25;5034198;28;20948;-70
2022/02/26 10:43:40;;;;;;;5.53;2.00;;;;;;;11.76;31.32;99067.09;5033619;28;20429;-71
2022/02/26 10:46:14;;;;;;;5.73;1.90;;;;;;;12.49;30.39;99053.72;5033359;28;20437;-70
2022/02/26 10:48:40;;;;;;;9.60;2.47;;;;;;;12.96;29.44;99053.56;5026258;28;20452;-70
2022/02/26 10:51:13;;;;;;;6.50;1.80;;;;;;;12.90;28.58;99054.91;5033457;28;20464;-71
2022/02/26 10:53:40;;;;;;;4.40;2.10;;;;;;;12.68;29.29;99053.13;5026231;28;20812;-70
2022/02/26 10:56:05;;;;;;;14.00;2.03;;;;;;;12.46;29.60;99053.97;5025234;28;20439;-70
2022/02/26 10:58:31;;;;;;;8.73;2.50;;;;;;;12.06;29.90;99061.34;5033474;28;20462;-70
2022/02/26 11:01:05;;;;;;;6.53;2.27;;;;;;;11.89;30.37;99054.72;5033776;28;20196;-69
2022/02/26 11:03:31;;;;;;;5.37;2.63;;;;;;;11.73;30.52;99065.50;5035527;28;20190;-69
2022/02/26 11:05:57;;;;;;;6.57;3.13;;;;;;;11.39;31.47;99061.94;4999632;28;20434;-70
2022/02/26 11:08:23;;;;;;;8.10;2.83;;;;;;;11.67;31.54;99060.72;5034535;28;20975;-71
2022/02/26 11:10:51;;;;;;;6.17;3.10;;;;;;;12.05;30.94;99064.06;5017819;28;20466;-70
2022/02/26 11:13:17;;;;;;;7.23;2.90;;;;;;;11.98;30.32;99053.19;5035359;28;20184;-70
2022/02/26 11:15:43;;;;;;;12.90;2.73;;;;;;;11.93;30.09;99057.94;5017060;28;21169;-70
2022/02/26 11:18:09;;;;;;;8.37;2.57;;;;;;;11.91;30.84;99054.59;5016210;28;20203;-71
2022/02/26 11:20:35;;;;;;;6.63;2.93;;;;;;;11.84;30.46;99049.78;5016742;28;20442;-70
2022/02/26 11:23:01;;;;;;;6.90;2.57;;;;;;;11.82;30.38;99056.97;5034014;28;20430;-70
2022/02/26 11:25:27;;;;;;;11.50;2.90;;;;;;;11.72;30.84;99057.75;5014850;28;20210;-71
2022/02/26 11:27:53;;;;;;;5.30;2.37;;;;;;;11.64;30.78;99053.91;5025858;28;20532;-71
2022/02/26 11:30:30;;;;;;;6.80;2.27;;;;;;;12.13;31.04;99054.66;5016643;28;20449;-69